Time;durP1;ratioP1;P1;durP2;ratioP2;P2;SDS_P1;SDS_P2;PMS_P1;PMS_P2;Temp;Humidity;BMP_temperature;BMP_pressure;BME280_temperature;BME280_humidity;BME280_pressure;Samples;Min_cycle;Max_cycle;Signal;HPM_P1;HPM_P2
2023/05/31 00:02:21;;;;;;;3.17;2.93;;;;;;;14.59;53.96;102397.94;4895096;28;97363;-50
2023/05/31 00:04:46;;;;;;;4.70;4.10;;;;;;;14.61;53.93;102403.03;4895036;28;106595;-47
2023/05/31 00:07:12;;;;;;;3.97;3.67;;;;;;;14.60;53.91;102405.03;4894858;28;96809;-48
2023/05/31 00:09:37;;;;;;;7.00;3.40;;;;;;;14.59;53.98;102409.03;4892089;28;97198;-50
2023/05/31 00:12:02;;;;;;;4.00;2.50;;;;;;;14.58;54.08;102406.75;4892509;28;97194;-49
2023/05/31 00:14:28;;;;;;;3.80;2.80;;;;;;;14.57;54.00;102405.97;4893385;28;96802;-47
2023/05/31 00:16:53;;;;;;;7.50;3.03;;;;;;;14.57;54.00;102399.69;4893408;28;97256;-49
2023/05/31 00:19:19;;;;;;;2.90;2.60;;;;;;;14.59;54.15;102406.25;4894661;28;96788;-49
2023/05/31 00:21:45;;;;;;;4.90;3.07;;;;;;;14.57;54.04;102410.78;4892851;28;97068;-48
2023/05/31 00:24:13;;;;;;;3.50;2.87;;;;;;;14.58;54.05;102404.75;4894172;28;97169;-49
2023/05/31 00:26:39;;;;;;;3.53;2.97;;;;;;;14.55;53.91;102421.53;4894081;28;97027;-48
2023/05/31 00:29:05;;;;;;;4.40;3.10;;;;;;;14.52;53.71;102406.66;4894080;28;97222;-50
2023/05/31 00:31:30;;;;;;;2.97;2.77;;;;;;;14.47;53.85;102401.78;4892082;28;97862;-51
2023/05/31 00:33:56;;;;;;;5.43;4.00;;;;;;;14.42;53.82;102410.75;4890978;28;97665;-49
2023/05/31 00:36:22;;;;;;;2.93;2.73;;;;;;;14.35;53.94;102415.91;4892860;28;97891;-48
2023/05/31 00:38:48;;;;;;;3.17;2.87;;;;;;;14.34;53.90;102414.38;4896446;28;97127;-48
2023/05/31 00:41:13;;;;;;;3.73;3.37;;;;;;;14.31;54.03;102413.31;4894949;28;96907;-48
2023/05/31 00:43:39;;;;;;;4.17;3.40;;;;;;;14.27;54.03;102407.16;4895719;28;97240;-52
2023/05/31 00:46:05;;;;;;;2.90;2.70;;;;;;;14.23;54.35;102415.66;4892402;28;96938;-48
2023/05/31 00:48:30;;;;;;;4.00;3.23;;;;;;;14.18;54.15;102419.09;4892966;28;96794;-47
2023/05/31 00:50:56;;;;;;;2.80;2.60;;;;;;;14.17;53.96;102416.81;4891202;28;97090;-49
2023/05/31 00:53:22;;;;;;;3.93;3.60;;;;;;;14.10;53.98;102414.41;4896645;28;98096;-51
2023/05/31 00:55:49;;;;;;;5.13;3.07;;;;;;;14.11;53.84;102424.22;4893318;28;97381;-50
2023/05/31 00:58:16;;;;;;;3.43;2.90;;;;;;;14.07;53.96;102415.34;4891431;28;97864;-49
2023/05/31 01:00:42;;;;;;;3.17;2.87;;;;;;;13.99;53.96;102414.19;4895794;28;97383;-46
2023/05/31 01:03:09;;;;;;;3.50;3.13;;;;;;;13.97;53.97;102416.66;4892847;28;96964;-50
2023/05/31 01:05:35;;;;;;;4.70;2.80;;;;;;;13.93;53.88;102424.38;4894510;28;98364;-46
2023/05/31 01:08:01;;;;;;;3.83;3.00;;;;;;;13.89;54.00;102418.25;4892055;28;97398;-50
2023/05/31 01:10:28;;;;;;;3.20;2.90;;;;;;;13.86;53.97;102416.41;4895729;28;97192;-48
2023/05/31 01:13:10;;;;;;;2.77;2.43;;;;;;;13.79;54.18;102408.47;4892523;28;97500;-46
2023/05/31 01:15:50;;;;;;;3.33;3.00;;;;;;;13.74;54.63;102412.66;4892678;28;97043;-48
2023/05/31 01:18:24;;;;;;;3.00;2.77;;;;;;;13.69;54.19;102409.78;4894581;28;96860;-48
2023/05/31 01:20:51;;;;;;;3.20;3.00;;;;;;;13.65;54.45;102415.47;4896771;28;97182;-46
2023/05/31 01:23:39;;;;;;;2.80;2.60;;;;;;;13.65;54.49;102411.97;4895118;28;97553;-49
2023/05/31 01:26:07;;;;;;;3.43;2.70;;;;;;;13.63;54.61;102408.91;4895919;28;97976;-47
2023/05/31 01:28:36;;;;;;;3.77;3.00;;;;;;;13.62;54.31;102413.66;4892126;28;97025;-47
2023/05/31 01:31:08;;;;;;;3.70;2.90;;;;;;;13.59;54.72;102408.28;4891772;28;97164;-50
2023/05/31 01:33:35;;;;;;;3.17;2.87;;;;;;;13.51;54.44;102411.44;4892485;28;97345;-49
2023/05/31 01:36:01;;;;;;;3.37;3.00;;;;;;;13.47;54.49;102416.38;4895079;28;97386;-46
2023/05/31 01:38:26;;;;;;;4.30;3.67;;;;;;;13.45;54.61;102418.06;4895981;28;97080;-46
2023/05/31 01:40:54;;;;;;;2.97;2.77;;;;;;;13.44;54.66;102420.06;4893124;28;97393;-52
2023/05/31 01:43:20;;;;;;;3.20;3.00;;;;;;;13.42;54.39;102419.78;4894828;28;97188;-48
2023/05/31 01:45:46;;;;;;;6.63;3.10;;;;;;;13.41;54.22;102409.19;4890979;28;97173;-55
2023/05/31 01:48:13;;;;;;;3.73;3.40;;;;;;;13.38;54.23;102410.88;4893010;28;97201;-52
2023/05/31 01:50:40;;;;;;;2.60;2.40;;;;;;;13.33;54.32;102406.00;4895717;28;96836;-46
2023/05/31 01:53:05;;;;;;;4.03;3.73;;;;;;;13.30;54.34;102417.97;4893530;28;97494;-51
2023/05/31 01:55:31;;;;;;;2.90;2.70;;;;;;;13.25;54.46;102410.34;4892115;28;97456;-49
2023/05/31 01:57:58;;;;;;;3.33;3.13;;;;;;;13.22;54.52;102413.25;4891481;28;97726;-48
2023/05/31 02:00:24;;;;;;;4.17;3.47;;;;;;;13.14;54.33;102414.84;4892738;28;97156;-54
2023/05/31 02:02:50;;;;;;;3.80;3.50;;;;;;;13.07;54.67;102409.63;4893918;28;98288;-46
2023/05/31 02:05:15;;;;;;;4.93;3.30;;;;;;;13.03;54.63;102406.25;4891851;28;97034;-50
2023/05/31 02:07:42;;;;;;;4.00;3.60;;;;;;;12.98;54.55;102404.88;4894505;28;97343;-47
2023/05/31 02:10:08;;;;;;;4.50;2.93;;;;;;;12.97;54.77;102411.66;4892412;28;97851;-49
2023/05/31 02:12:34;;;;;;;3.70;3.20;;;;;;;12.98;54.48;102418.69;4894052;28;97533;-49
2023/05/31 02:15:00;;;;;;;4.00;3.57;;;;;;;12.94;54.45;102400.75;4892591;28;97143;-50
2023/05/31 02:17:26;;;;;;;3.33;3.07;;;;;;;12.89;54.57;102404.91;4892907;28;97373;-52
2023/05/31 02:19:53;;;;;;;4.33;2.90;;;;;;;12.83;54.41;102401.25;4891083;28;97166;-47
2023/05/31 02:22:21;;;;;;;3.60;2.90;;;;;;;12.79;54.57;102414.47;4892765;28;99894;-47
2023/05/31 02:24:47;;;;;;;5.80;3.10;;;;;;;12.72;54.38;102414.78;4893437;28;97109;-48
2023/05/31 02:27:13;;;;;;;3.43;2.80;;;;;;;12.66;54.66;102413.88;4891827;28;96971;-49
2023/05/31 02:29:39;;;;;;;8.37;3.50;;;;;;;12.61;54.90;102407.00;4895079;28;97063;-50
2023/05/31 02:32:04;;;;;;;3.13;2.83;;;;;;;12.61;54.90;102408.97;4891858;28;97497;-49
2023/05/31 02:34:30;;;;;;;3.57;3.30;;;;;;;12.59;54.98;102414.22;4890556;28;97196;-50
2023/05/31 02:36:56;;;;;;;2.90;2.70;;;;;;;12.58;54.78;102407.91;4889602;28;97303;-46
2023/05/31 02:39:21;;;;;;;6.10;3.73;;;;;;;12.54;54.65;102417.59;4891488;28;96972;-49
2023/05/31 02:41:46;;;;;;;3.50;3.30;;;;;;;12.50;54.75;102406.72;4893841;28;97518;-46
2023/05/31 02:44:13;;;;;;;3.73;3.13;;;;;;;12.49;54.98;102409.94;4891665;28;98254;-45
2023/05/31 02:46:39;;;;;;;3.33;3.13;;;;;;;12.49;54.92;102412.69;4892492;28;97047;-50
2023/05/31 02:49:06;;;;;;;3.50;3.20;;;;;;;12.49;54.90;102399.63;4893256;28;96933;-49
2023/05/31 02:51:31;;;;;;;3.67;2.80;;;;;;;12.49;54.96;102409.94;4893337;28;97226;-46
2023/05/31 02:53:57;;;;;;;3.37;3.07;;;;;;;12.46;54.87;102399.81;4892251;28;97247;-49
2023/05/31 02:56:23;;;;;;;3.60;3.30;;;;;;;12.43;55.07;102403.47;4895483;28;97655;-49
2023/05/31 02:58:48;;;;;;;3.50;3.30;;;;;;;12.42;55.17;102390.94;4896178;28;97433;-50
2023/05/31 03:01:13;;;;;;;3.03;2.80;;;;;;;12.40;55.17;102399.69;4891564;28;98797;-45
2023/05/31 03:03:39;;;;;;;2.87;2.57;;;;;;;12.41;54.85;102405.94;4895870;28;103259;-51
2023/05/31 03:06:04;;;;;;;3.40;3.07;;;;;;;12.42;54.94;102399.22;4893891;28;97117;-50
2023/05/31 03:08:30;;;;;;;7.00;3.00;;;;;;;12.33;55.04;102397.22;4895381;28;97327;-50
2023/05/31 03:10:55;;;;;;;4.27;3.50;;;;;;;12.26;55.19;102397.53;4894600;28;97611;-49
2023/05/31 03:13:21;;;;;;;3.60;3.37;;;;;;;12.27;54.85;102398.31;4892808;28;97316;-46
2023/05/31 03:15:46;;;;;;;3.80;3.47;;;;;;;12.21;54.82;102397.41;4895831;28;97322;-49
2023/05/31 03:18:11;;;;;;;3.40;3.20;;;;;;;12.12;54.86;102398.16;4894268;28;96971;-50
2023/05/31 03:20:37;;;;;;;6.67;3.70;;;;;;;12.10;55.13;102408.88;4893917;28;97302;-51
2023/05/31 03:23:02;;;;;;;4.73;3.23;;;;;;;12.09;54.90;102398.31;4896269;28;97342;-48
2023/05/31 03:25:28;;;;;;;4.17;3.20;;;;;;;12.11;54.95;102406.88;4898462;28;97171;-50
2023/05/31 03:27:53;;;;;;;3.10;2.80;;;;;;;12.08;54.97;102403.06;4897153;28;96887;-46
2023/05/31 03:30:18;;;;;;;6.07;3.17;;;;;;;12.05;54.98;102404.00;4891193;28;106747;-49
2023/05/31 03:32:43;;;;;;;3.30;3.00;;;;;;;11.99;55.11;102400.31;4894890;28;97178;-49
2023/05/31 03:35:09;;;;;;;3.87;3.13;;;;;;;11.97;55.19;102399.97;4892701;28;97335;-48
2023/05/31 03:37:34;;;;;;;5.03;3.40;;;;;;;11.93;55.31;102394.63;4893058;28;97139;-49
2023/05/31 03:40:00;;;;;;;3.37;3.07;;;;;;;11.91;55.45;102399.84;4898739;28;97325;-49
2023/05/31 03:42:26;;;;;;;4.20;3.33;;;;;;;11.91;55.28;102394.31;4895369;28;96894;-54
2023/05/31 03:44:51;;;;;;;5.50;3.40;;;;;;;11.89;55.44;102396.00;4896309;28;97342;-47
2023/05/31 03:47:17;;;;;;;4.70;2.80;;;;;;;11.94;55.33;102396.19;4894739;28;97375;-51
2023/05/31 03:49:42;;;;;;;3.03;2.83;;;;;;;11.95;55.19;102403.22;4889757;28;96743;-49
2023/05/31 03:52:12;;;;;;;4.73;3.50;;;;;;;11.94;55.26;102404.44;4889018;28;97536;-47
2023/05/31 03:54:38;;;;;;;3.67;3.20;;;;;;;11.93;55.17;102408.41;4894361;28;96890;-49
2023/05/31 03:57:03;;;;;;;4.83;3.60;;;;;;;11.92;55.33;102404.16;4895357;28;97374;-49
2023/05/31 03:59:29;;;;;;;3.40;3.10;;;;;;;11.93;55.35;102402.91;4900088;28;98389;-48
2023/05/31 04:01:55;;;;;;;4.50;3.30;;;;;;;11.95;55.16;102399.69;4896811;28;98587;-49
2023/05/31 04:04:20;;;;;;;4.47;3.40;;;;;;;11.93;55.12;102400.16;4896314;28;98153;-46
2023/05/31 04:06:46;;;;;;;3.77;3.47;;;;;;;11.94;55.32;102403.69;4894013;28;96941;-51
2023/05/31 04:09:11;;;;;;;3.40;3.10;;;;;;;11.95;55.11;102403.22;4891828;28;97540;-48
2023/05/31 04:11:37;;;;;;;4.27;3.37;;;;;;;11.93;55.34;102405.66;4894049;28;97318;-46
2023/05/31 04:14:02;;;;;;;6.10;4.00;;;;;;;11.95;55.15;102405.97;4892540;28;96941;-50
2023/05/31 04:16:28;;;;;;;5.27;3.50;;;;;;;11.96;55.00;102421.31;4892061;28;97033;-46
2023/05/31 04:18:53;;;;;;;4.03;2.83;;;;;;;11.98;55.01;102418.84;4896684;28;97500;-46
2023/05/31 04:21:18;;;;;;;5.13;3.60;;;;;;;11.97;55.12;102411.78;4892596;28;97831;-48
2023/05/31 04:23:44;;;;;;;4.40;3.83;;;;;;;11.98;55.35;102416.09;4894321;28;96710;-47
2023/05/31 04:26:16;;;;;;;3.73;2.70;;;;;;;11.99;55.30;102411.34;4895125;28;97344;-47
2023/05/31 04:28:43;;;;;;;3.47;3.17;;;;;;;12.00;55.35;102412.88;4892347;28;97347;-50
2023/05/31 04:31:08;;;;;;;3.63;3.20;;;;;;;11.99;55.30;102401.06;4893830;28;96757;-50
2023/05/31 04:33:35;;;;;;;3.30;3.00;;;;;;;12.01;55.64;102409.63;4898886;28;96985;-49
2023/05/31 04:36:03;;;;;;;3.57;3.27;;;;;;;12.03;55.49;102401.66;4894418;28;101086;-55
2023/05/31 04:38:29;;;;;;;3.77;3.27;;;;;;;12.09;55.36;102406.59;4893001;28;97131;-47
2023/05/31 04:40:57;;;;;;;5.00;3.20;;;;;;;12.11;55.48;102406.88;4890562;28;97115;-47
2023/05/31 04:43:23;;;;;;;4.37;3.63;;;;;;;12.14;55.48;102401.22;4892681;28;96952;-48
2023/05/31 04:45:49;;;;;;;5.00;3.30;;;;;;;12.18;55.38;102401.06;4892820;28;97583;-47
2023/05/31 04:48:15;;;;;;;3.87;3.57;;;;;;;12.20;55.23;102407.66;4894490;28;97028;-47
2023/05/31 04:50:40;;;;;;;3.17;2.97;;;;;;;12.22;55.25;102409.94;4893533;28;97373;-49
2023/05/31 04:53:06;;;;;;;4.27;2.97;;;;;;;12.26;55.23;102410.56;4891989;28;96733;-50
2023/05/31 04:55:31;;;;;;;3.23;3.00;;;;;;;12.28;55.41;102406.13;4891135;28;97221;-49
2023/05/31 04:57:56;;;;;;;5.37;3.33;;;;;;;12.28;55.36;102399.81;4893139;28;97321;-49
2023/05/31 05:00:22;;;;;;;4.13;3.67;;;;;;;12.29;55.37;102404.13;4892831;28;97742;-51
2023/05/31 05:02:47;;;;;;;3.43;3.13;;;;;;;12.33;55.44;102405.50;4891899;28;97059;-46
2023/05/31 05:05:13;;;;;;;5.90;3.33;;;;;;;12.37;55.55;102403.34;4893764;28;97010;-47
2023/05/31 05:07:38;;;;;;;5.10;3.57;;;;;;;12.39;55.69;102406.41;4893682;28;97383;-50
2023/05/31 05:10:04;;;;;;;3.57;3.13;;;;;;;12.42;55.74;102401.97;4891228;28;98253;-53
2023/05/31 05:12:30;;;;;;;4.40;2.83;;;;;;;12.52;55.58;102403.47;4894470;28;96876;-49
2023/05/31 05:14:55;;;;;;;3.27;2.97;;;;;;;12.59;55.53;102397.63;4896433;28;97164;-49
2023/05/31 05:17:20;;;;;;;3.40;2.53;;;;;;;12.65;55.65;102409.59;4891638;28;97625;-49
2023/05/31 05:19:46;;;;;;;3.53;2.93;;;;;;;12.71;55.67;102405.72;4895039;28;97452;-47
2023/05/31 05:22:11;;;;;;;3.37;3.07;;;;;;;12.76;55.75;102405.13;4893007;28;97038;-48
2023/05/31 05:24:36;;;;;;;3.17;2.87;;;;;;;12.87;55.96;102410.13;4892231;28;97082;-48
2023/05/31 05:27:02;;;;;;;5.57;3.43;;;;;;;12.91;55.85;102401.72;4891824;28;99936;-48
2023/05/31 05:29:27;;;;;;;15.80;3.70;;;;;;;13.05;55.86;102406.56;4894205;28;97159;-48
2023/05/31 05:31:53;;;;;;;15.87;4.10;;;;;;;13.13;55.94;102413.28;4891467;28;97071;-49
2023/05/31 05:34:20;;;;;;;11.60;3.33;;;;;;;13.21;56.12;102415.28;4892906;28;96618;-48
2023/05/31 05:36:45;;;;;;;2.90;2.60;;;;;;;13.30;56.33;102417.97;4892605;28;97808;-49
2023/05/31 05:39:11;;;;;;;3.90;2.80;;;;;;;13.41;56.21;102418.22;4890821;28;97373;-52
2023/05/31 05:41:36;;;;;;;4.67;2.90;;;;;;;13.51;56.44;102419.72;4894659;28;97414;-50
2023/05/31 05:44:02;;;;;;;3.53;2.90;;;;;;;13.63;56.40;102417.22;4893894;28;96811;-52
2023/05/31 05:46:28;;;;;;;3.23;2.87;;;;;;;13.75;56.32;102418.97;4892209;28;98710;-49
2023/05/31 05:48:53;;;;;;;3.80;2.80;;;;;;;13.89;56.37;102419.00;4892693;28;97069;-48
2023/05/31 05:51:19;;;;;;;2.87;2.67;;;;;;;14.01;56.34;102415.22;4892794;28;97462;-50
2023/05/31 05:53:45;;;;;;;3.73;2.47;;;;;;;14.13;56.63;102416.97;4892925;28;97076;-47
2023/05/31 05:56:17;;;;;;;3.87;2.17;;;;;;;14.28;56.74;102422.56;4892844;28;97170;-49
2023/05/31 05:58:43;;;;;;;3.87;2.30;;;;;;;14.42;56.60;102427.38;4893877;28;98529;-48
2023/05/31 06:01:08;;;;;;;2.27;2.13;;;;;;;14.54;56.65;102418.03;4888450;28;97409;-50
2023/05/31 06:03:34;;;;;;;3.63;2.13;;;;;;;14.67;56.76;102418.50;4893649;28;97088;-48
2023/05/31 06:05:59;;;;;;;2.73;1.90;;;;;;;14.81;56.53;102417.72;4892042;28;98575;-50
2023/05/31 06:08:25;;;;;;;4.20;2.50;;;;;;;14.95;56.54;102416.97;4893210;28;97598;-47
2023/05/31 06:10:50;;;;;;;2.03;1.93;;;;;;;15.09;56.42;102411.88;4893010;28;96848;-47
2023/05/31 06:13:15;;;;;;;2.27;1.90;;;;;;;15.20;56.24;102420.38;4891029;28;97218;-50
2023/05/31 06:15:41;;;;;;;4.50;1.90;;;;;;;15.33;56.36;102418.03;4892949;28;97432;-51
2023/05/31 06:18:08;;;;;;;5.73;2.37;;;;;;;15.47;56.15;102417.25;4892696;28;97619;-46
2023/05/31 06:20:33;;;;;;;1.93;1.77;;;;;;;15.64;55.99;102412.69;4892173;28;97001;-50
2023/05/31 06:22:58;;;;;;;2.60;1.90;;;;;;;15.77;55.91;102405.53;4893716;28;97371;-46
2023/05/31 06:25:24;;;;;;;1.73;1.63;;;;;;;15.88;55.77;102406.94;4888976;28;104200;-50
2023/05/31 06:27:50;;;;;;;2.27;1.97;;;;;;;16.00;55.69;102405.81;4894586;28;97220;-48
2023/05/31 06:30:16;;;;;;;1.83;1.70;;;;;;;16.11;55.60;102403.94;4893468;28;97417;-51
2023/05/31 06:32:42;;;;;;;1.73;1.63;;;;;;;16.24;55.39;102409.88;4897544;28;97195;-46
2023/05/31 06:35:07;;;;;;;2.00;1.60;;;;;;;16.37;55.29;102407.50;4895190;28;97101;-48
2023/05/31 06:37:33;;;;;;;1.63;1.50;;;;;;;16.50;54.90;102412.69;4894613;28;97424;-48
2023/05/31 06:39:59;;;;;;;3.30;1.80;;;;;;;16.66;54.82;102412.09;4892699;28;97099;-49
2023/05/31 06:42:24;;;;;;;4.77;1.93;;;;;;;16.76;54.59;102410.66;4896483;28;97000;-50
2023/05/31 06:44:50;;;;;;;1.50;1.27;;;;;;;16.88;54.38;102408.72;4895586;28;97683;-49
2023/05/31 06:47:16;;;;;;;2.13;1.90;;;;;;;17.00;54.13;102415.88;4892766;28;97688;-48
2023/05/31 06:49:42;;;;;;;7.33;1.50;;;;;;;17.10;54.05;102406.84;4897728;28;97215;-50
2023/05/31 06:52:08;;;;;;;2.00;1.80;;;;;;;17.22;53.67;102404.91;4894021;28;97084;-48
2023/05/31 06:54:36;;;;;;;2.73;1.40;;;;;;;17.38;53.84;102409.84;4895690;28;96885;-50
2023/05/31 06:57:03;;;;;;;1.40;1.30;;;;;;;17.53;53.56;102410.44;4892831;28;97733;-51
2023/05/31 06:59:28;;;;;;;1.97;1.77;;;;;;;17.67;53.59;102400.41;4895155;28;96868;-49
2023/05/31 07:01:54;;;;;;;4.23;1.50;;;;;;;17.80;53.18;102398.66;4893778;28;97606;-47
2023/05/31 07:04:20;;;;;;;1.60;1.50;;;;;;;17.93;52.86;102393.41;4892711;28;97353;-49
2023/05/31 07:06:46;;;;;;;2.00;1.57;;;;;;;18.08;52.89;102398.00;4893033;28;97680;-49
2023/05/31 07:09:11;;;;;;;1.80;1.57;;;;;;;18.19;52.49;102389.69;4892558;28;97208;-52
2023/05/31 07:11:39;;;;;;;1.30;1.20;;;;;;;18.31;52.34;102396.78;4894786;28;97282;-48
2023/05/31 07:14:04;;;;;;;1.60;1.47;;;;;;;18.43;51.89;102395.56;4891904;28;97554;-49
2023/05/31 07:16:30;;;;;;;2.60;1.40;;;;;;;18.55;51.62;102391.53;4895465;28;97009;-50
2023/05/31 07:18:56;;;;;;;1.10;1.00;;;;;;;18.64;51.58;102394.06;4894031;28;98323;-53
2023/05/31 07:21:21;;;;;;;1.53;1.20;;;;;;;18.76;51.06;102389.25;4895110;28;98048;-47
2023/05/31 07:23:47;;;;;;;1.57;1.07;;;;;;;18.84;51.17;102385.44;4892348;28;96963;-50
2023/05/31 07:26:13;;;;;;;1.60;1.40;;;;;;;18.95;50.94;102385.44;4894091;28;97119;-50
2023/05/31 07:28:38;;;;;;;1.80;1.40;;;;;;;19.08;50.66;102387.69;4892551;28;97582;-51
2023/05/31 07:31:03;;;;;;;1.30;1.10;;;;;;;19.18;50.17;102398.06;4893501;28;97321;-47
2023/05/31 07:33:29;;;;;;;3.50;1.30;;;;;;;19.33;49.55;102397.81;4893154;28;97263;-49
2023/05/31 07:35:57;;;;;;;2.17;1.37;;;;;;;19.43;49.38;102394.25;4893073;28;97488;-50
2023/05/31 07:38:22;;;;;;;1.57;1.23;;;;;;;19.55;49.79;102388.63;4893582;28;97388;-49
2023/05/31 07:40:48;;;;;;;1.40;1.30;;;;;;;19.68;49.31;102391.63;4893208;28;97093;-49
2023/05/31 07:43:13;;;;;;;2.10;1.10;;;;;;;19.80;49.02;102390.28;4893828;28;97493;-48
2023/05/31 07:45:39;;;;;;;7.07;1.33;;;;;;;19.90;48.83;102389.47;4892440;28;97184;-48
2023/05/31 07:48:04;;;;;;;2.03;1.37;;;;;;;20.02;48.43;102390.19;4892251;28;97120;-48
2023/05/31 07:50:30;;;;;;;1.50;1.40;;;;;;;20.12;48.57;102374.63;4892024;28;96980;-48
2023/05/31 07:52:55;;;;;;;2.93;1.40;;;;;;;20.23;48.25;102379.41;4895082;28;97402;-50
2023/05/31 07:55:20;;;;;;;2.20;1.40;;;;;;;20.33;47.92;102378.59;4901534;28;97647;-47
2023/05/31 07:57:46;;;;;;;2.23;1.90;;;;;;;20.39;47.49;102373.72;4893408;28;97056;-47
2023/05/31 08:00:13;;;;;;;1.43;1.33;;;;;;;20.47;47.43;102376.69;4890265;28;97131;-53
2023/05/31 08:02:39;;;;;;;1.37;1.20;;;;;;;20.59;47.22;102383.72;4893399;28;97175;-51
2023/05/31 08:05:05;;;;;;;1.53;1.33;;;;;;;20.68;46.76;102375.78;4893372;28;97140;-47
2023/05/31 08:07:30;;;;;;;1.43;1.00;;;;;;;20.82;46.64;102376.66;4895360;28;96804;-48
2023/05/31 08:09:56;;;;;;;3.20;1.53;;;;;;;20.92;46.14;102378.59;4896814;28;97304;-50
2023/05/31 08:12:21;;;;;;;0.93;0.90;;;;;;;21.01;45.95;102371.16;4893035;28;97228;-49
2023/05/31 08:14:47;;;;;;;2.33;1.37;;;;;;;21.11;45.73;102366.75;4895373;28;97197;-50
2023/05/31 08:17:12;;;;;;;1.10;0.83;;;;;;;21.17;45.42;102361.84;4895790;28;97294;-52
2023/05/31 08:19:38;;;;;;;1.30;1.20;;;;;;;21.23;45.40;102357.69;4894683;28;97151;-51
2023/05/31 08:22:04;;;;;;;1.30;1.10;;;;;;;21.35;45.18;102361.91;4897824;28;96618;-49
2023/05/31 08:24:30;;;;;;;1.93;1.30;;;;;;;21.48;44.91;102364.03;4893062;28;97734;-50
2023/05/31 08:26:56;;;;;;;2.37;1.40;;;;;;;21.61;45.00;102364.88;4894536;28;97176;-51
2023/05/31 08:29:22;;;;;;;1.30;1.10;;;;;;;21.67;44.85;102362.75;4892970;28;97248;-51
2023/05/31 08:31:48;;;;;;;2.20;1.27;;;;;;;21.79;44.47;102354.97;4896742;28;97740;-49
2023/05/31 08:34:13;;;;;;;1.60;1.50;;;;;;;21.89;44.48;102356.13;4891917;28;97188;-48
2023/05/31 08:36:41;;;;;;;2.23;1.30;;;;;;;22.00;43.75;102352.41;4895027;28;96811;-53
2023/05/31 08:39:08;;;;;;;2.60;1.30;;;;;;;22.12;43.94;102353.78;4894589;28;97060;-52
2023/05/31 08:41:42;;;;;;;2.67;1.30;;;;;;;22.26;43.04;102358.91;4894196;28;98323;-53
2023/05/31 08:44:08;;;;;;;1.30;0.83;;;;;;;22.32;43.46;102345.53;4892917;28;97107;-48
2023/05/31 08:46:34;;;;;;;13.40;1.70;;;;;;;22.42;43.21;102351.50;4895134;28;96634;-51
2023/05/31 08:49:10;;;;;;;1.30;1.20;;;;;;;22.57;41.86;102353.81;4894618;28;96925;-51
2023/05/31 08:51:37;;;;;;;3.60;1.40;;;;;;;22.72;42.92;102348.47;4896570;28;97610;-51
2023/05/31 08:54:05;;;;;;;1.10;1.00;;;;;;;22.85;42.57;102346.44;4893527;28;97410;-52
2023/05/31 08:56:31;;;;;;;1.13;1.03;;;;;;;22.97;42.41;102347.78;4897100;28;97213;-50
2023/05/31 08:58:57;;;;;;;1.60;1.30;;;;;;;23.08;42.30;102350.38;4894203;28;97161;-50
2023/05/31 09:01:23;;;;;;;1.13;1.00;;;;;;;23.17;41.99;102343.56;4893828;28;97423;-51
2023/05/31 09:03:53;;;;;;;1.47;1.03;;;;;;;23.24;41.80;102345.72;4891349;28;97037;-52
2023/05/31 09:06:18;;;;;;;1.23;0.93;;;;;;;23.28;41.69;102348.97;4896087;28;97736;-51
2023/05/31 09:08:44;;;;;;;2.43;1.83;;;;;;;23.30;41.53;102351.22;4895272;28;97667;-51
2023/05/31 09:11:10;;;;;;;4.00;1.17;;;;;;;23.28;41.39;102348.97;4895679;28;97445;-48
2023/05/31 09:13:35;;;;;;;2.00;1.43;;;;;;;23.33;41.44;102350.16;4893549;28;97668;-49
2023/05/31 09:16:01;;;;;;;1.30;1.00;;;;;;;23.44;41.53;102345.06;4895727;28;100619;-50
2023/05/31 09:18:31;;;;;;;1.97;1.20;;;;;;;23.61;41.32;102350.38;4892310;28;97079;-52
2023/05/31 09:20:57;;;;;;;1.40;1.30;;;;;;;23.74;41.19;102337.00;4890960;28;98575;-50
2023/05/31 09:23:22;;;;;;;1.60;1.10;;;;;;;23.94;41.11;102332.72;4894388;28;97379;-49
2023/05/31 09:25:50;;;;;;;1.30;1.20;;;;;;;24.17;40.80;102333.00;4893928;28;97333;-50
2023/05/31 09:28:20;;;;;;;3.37;1.60;;;;;;;24.34;40.63;102328.50;4895065;28;97336;-51
2023/05/31 09:30:46;;;;;;;1.63;1.53;;;;;;;24.44;40.35;102317.50;4893039;28;97810;-52
2023/05/31 09:33:13;;;;;;;1.67;1.30;;;;;;;24.55;40.37;102328.50;4890879;28;97218;-52
2023/05/31 09:35:55;;;;;;;1.40;1.10;;;;;;;24.64;37.98;102318.78;4893876;28;97083;-49
2023/05/31 09:38:31;;;;;;;2.50;1.40;;;;;;;24.73;38.78;102313.41;4893027;28;96720;-50
2023/05/31 09:40:56;;;;;;;1.27;1.13;;;;;;;24.86;39.70;102318.97;4890456;28;97137;-50
2023/05/31 09:43:22;;;;;;;1.60;1.17;;;;;;;24.92;39.37;102319.56;4890387;28;97498;-52
2023/05/31 09:45:47;;;;;;;2.17;1.33;;;;;;;24.97;39.46;102323.53;4891824;28;97963;-50
2023/05/31 09:48:12;;;;;;;1.40;1.20;;;;;;;24.89;38.76;102315.06;4892810;28;96974;-49
2023/05/31 09:50:39;;;;;;;4.07;1.40;;;;;;;24.89;39.13;102317.88;4893455;28;99781;-47
2023/05/31 09:53:04;;;;;;;2.03;1.53;;;;;;;24.95;38.99;102314.91;4892094;28;98427;-52
2023/05/31 09:55:42;;;;;;;2.30;1.40;;;;;;;24.89;38.37;102306.59;4892500;28;97069;-50
2023/05/31 09:58:07;;;;;;;1.70;1.50;;;;;;;24.79;39.03;102308.41;4894439;28;97188;-48
2023/05/31 10:00:33;;;;;;;1.93;1.37;;;;;;;24.88;39.08;102302.28;4893003;28;97877;-49
2023/05/31 10:02:59;;;;;;;2.07;1.40;;;;;;;25.17;39.07;102300.94;4891229;28;97132;-48
2023/05/31 10:05:25;;;;;;;1.57;1.00;;;;;;;25.40;38.08;102303.13;4890387;28;97226;-50
2023/05/31 10:07:51;;;;;;;2.70;1.57;;;;;;;25.49;38.22;102311.81;4896680;28;97037;-48
2023/05/31 10:10:20;;;;;;;2.13;1.20;;;;;;;25.55;37.91;102300.38;4895429;28;98178;-48
2023/05/31 10:12:57;;;;;;;1.97;1.20;;;;;;;25.51;37.71;102302.81;4895610;28;96828;-52
2023/05/31 10:15:24;;;;;;;1.37;1.27;;;;;;;25.45;37.67;102297.34;4894701;28;96779;-48
2023/05/31 10:18:02;;;;;;;1.37;1.10;;;;;;;25.48;36.32;102307.50;4897151;28;97157;-50
2023/05/31 10:21:06;;;;;;;3.70;1.70;;;;;;;25.58;36.13;102287.97;4894450;28;97373;-50
2023/05/31 10:23:41;;;;;;;2.23;1.40;;;;;;;25.53;36.75;102291.75;4869171;28;97919;-53
2023/05/31 10:26:20;;;;;;;2.00;1.37;;;;;;;25.49;35.97;102280.81;4893541;28;97127;-49
2023/05/31 10:29:10;;;;;;;1.37;1.20;;;;;;;25.63;35.01;102284.25;4894112;28;97193;-50
2023/05/31 10:31:48;;;;;;;2.63;1.73;;;;;;;25.66;36.58;102288.78;4893169;28;97311;-54
2023/05/31 10:34:24;;;;;;;3.30;1.63;;;;;;;25.71;36.49;102280.13;4893506;28;97313;-46
2023/05/31 10:36:51;;;;;;;2.00;1.40;;;;;;;25.89;37.13;102272.63;4893573;28;97080;-48
2023/05/31 10:39:41;;;;;;;1.30;1.20;;;;;;;25.98;35.79;102277.72;4895636;28;96916;-50
2023/05/31 10:42:43;;;;;;;1.90;1.60;;;;;;;25.86;36.09;102276.59;4891796;28;98165;-48
2023/05/31 10:45:15;;;;;;;1.13;0.97;;;;;;;25.87;36.63;102270.38;4874297;28;97249;-48
2023/05/31 10:48:10;;;;;;;1.83;1.30;;;;;;;26.01;35.89;102277.34;4892505;28;98167;-50
2023/05/31 10:50:51;;;;;;;2.43;1.10;;;;;;;26.02;35.79;102266.81;4895266;28;97134;-52
2023/05/31 10:53:16;;;;;;;1.40;1.13;;;;;;;26.07;36.39;102254.63;4896298;28;97325;-49
2023/05/31 10:55:43;;;;;;;5.63;1.70;;;;;;;26.08;36.35;102264.56;4893348;28;106269;-51
2023/05/31 10:58:28;;;;;;;1.50;1.40;;;;;;;26.07;35.06;102251.78;4893984;28;96789;-50
2023/05/31 11:00:55;;;;;;;1.53;1.13;;;;;;;26.12;36.49;102250.13;4895115;28;97290;-50
2023/05/31 11:03:24;;;;;;;3.47;1.10;;;;;;;26.04;36.28;102244.44;4893094;28;97912;-47
2023/05/31 11:05:59;;;;;;;1.37;1.27;;;;;;;26.11;36.01;102245.78;4895782;28;97041;-51
2023/05/31 11:08:25;;;;;;;2.20;1.63;;;;;;;26.23;36.62;102246.94;4894960;28;97026;-48
2023/05/31 11:10:50;;;;;;;2.30;1.37;;;;;;;26.36;36.18;102247.50;4895449;28;96949;-49
2023/05/31 11:13:17;;;;;;;1.33;1.23;;;;;;;26.47;36.08;102252.00;4892699;28;99523;-52
2023/05/31 11:15:43;;;;;;;2.77;1.30;;;;;;;26.51;35.93;102253.13;4892386;28;97591;-49
2023/05/31 11:18:14;;;;;;;1.10;1.00;;;;;;;26.60;35.93;102244.06;4892258;28;97373;-49
2023/05/31 11:20:39;;;;;;;1.10;0.97;;;;;;;26.77;35.83;102232.19;4893698;28;97411;-48
2023/05/31 11:23:17;;;;;;;2.00;1.10;;;;;;;26.86;34.01;102237.25;4896263;28;97744;-50
2023/05/31 11:25:43;;;;;;;5.10;1.67;;;;;;;26.86;35.67;102233.69;4894130;28;98313;-51